createdAt,value
2022-12-05T05:00:27.207Z,30.00
2022-12-05T05:11:32.053Z,33.40
2022-12-05T05:22:31.946Z,33.10
2022-12-05T05:33:31.810Z,25.90
2022-12-05T05:44:31.889Z,28.90
2022-12-05T05:55:31.593Z,20.60
2022-12-05T06:06:31.441Z,31.60
2022-12-05T06:17:31.327Z,29.60
2022-12-05T06:28:31.218Z,35.80
2022-12-05T06:39:31.082Z,21.70
2022-12-05T06:50:31.985Z,23.00
2022-12-05T07:01:30.918Z,28.20
2022-12-05T07:12:30.735Z,13.50
2022-12-05T07:23:30.691Z,22.00
2022-12-05T07:34:30.471Z,17.30
2022-12-05T07:45:30.420Z,17.00
2022-12-05T07:56:30.274Z,19.00
2022-12-05T08:07:30.244Z,31.10
2022-12-05T08:18:29.984Z,35.50
2022-12-05T08:29:29.873Z,24.10
2022-12-05T08:40:29.754Z,25.50
2022-12-05T08:51:29.827Z,23.30
2022-12-05T09:02:29.640Z,23.40
2022-12-05T09:13:29.375Z,28.20
2022-12-05T09:24:29.248Z,26.90
2022-12-05T09:35:29.157Z,23.90
2022-12-05T09:46:34.021Z,20.20
2022-12-05T09:57:33.527Z,22.30
2022-12-05T10:08:28.786Z,29.00
2022-12-05T10:19:28.685Z,14.30
2022-12-05T10:30:28.532Z,17.90
2022-12-05T10:41:28.404Z,26.20
2022-12-05T10:52:28.288Z,22.00
2022-12-05T11:03:28.160Z,16.50
2022-12-05T11:14:28.079Z,20.50
2022-12-05T11:25:28.061Z,16.70
2022-12-05T11:36:27.853Z,20.70
2022-12-05T11:47:27.718Z,23.30
2022-12-05T11:58:27.603Z,23.10
2022-12-05T12:09:27.461Z,12.60
2022-12-05T12:20:27.301Z,20.10
2022-12-05T12:31:27.352Z,23.00
2022-12-05T12:42:27.061Z,16.50
2022-12-05T12:53:26.925Z,17.00
2022-12-05T13:04:26.810Z,19.40
2022-12-05T13:15:26.681Z,22.80
2022-12-05T13:26:26.575Z,14.70
2022-12-05T13:37:26.459Z,9.80
2022-12-05T13:48:26.359Z,9.10
2022-12-05T13:59:26.227Z,9.70
2022-12-05T14:10:26.099Z,5.10
2022-12-05T14:21:25.955Z,2.80
2022-12-05T14:32:25.847Z,4.10
2022-12-05T14:43:25.739Z,4.50
2022-12-05T14:54:25.605Z,3.50
2022-12-05T15:05:25.554Z,4.60
2022-12-05T15:16:25.410Z,4.10
2022-12-05T15:27:26.240Z,4.60
2022-12-05T15:38:27.469Z,4.80
2022-12-05T15:49:24.974Z,4.20
2022-12-05T16:00:24.992Z,4.20
2022-12-05T16:11:24.719Z,5.30
2022-12-05T16:22:24.613Z,6.80
2022-12-05T16:33:24.508Z,14.30
2022-12-05T16:44:24.353Z,3.40
2022-12-05T16:55:24.246Z,3.70
2022-12-05T17:06:24.150Z,4.30
2022-12-05T17:17:23.996Z,3.80
2022-12-05T17:28:23.868Z,2.30
2022-12-05T17:39:28.362Z,2.20
2022-12-05T17:50:23.612Z,2.70
2022-12-05T18:01:23.585Z,2.80
2022-12-05T18:12:23.386Z,2.80
2022-12-05T18:23:23.247Z,4.10
2022-12-05T18:34:23.120Z,5.90
2022-12-05T18:45:23.056Z,4.10
2022-12-05T18:56:25.067Z,7.80
2022-12-05T19:07:22.766Z,9.40
2022-12-05T19:18:22.696Z,3.70
2022-12-05T19:29:22.511Z,3.30
2022-12-05T19:40:22.393Z,3.80
2022-12-05T19:51:22.259Z,5.80
2022-12-05T20:02:22.157Z,3.80
2022-12-05T20:13:45.945Z,3.80
2022-12-05T20:24:21.892Z,3.80
2022-12-05T20:35:24.208Z,2.80
2022-12-05T20:46:21.729Z,5.60
2022-12-05T20:57:21.512Z,2.80
2022-12-05T21:08:21.499Z,2.60
2022-12-05T21:19:21.294Z,3.50
2022-12-05T21:30:21.145Z,3.90
2022-12-05T21:41:21.042Z,5.70
2022-12-05T21:52:20.895Z,4.70
